Schedule Details

Flight Number: ASX322X
Departure: Budapest (LHBP) at 15:20Z
Arrival: Gdansk im. Lecha Walesy (EPGD) at 16:20Z

Weather Information
LHBP 272300Z VRB02KT CAVOK 18/16 Q1020 NOSIG
EPGD 272300Z 06004KT 020V110 CAVOK 16/15 Q1025

Schedule Frequency

Route Map